sensor_id;sensor_type;location;lat;lon;timestamp;P1;durP1;ratioP1;P2;durP2;ratioP2
47617;SDS011;33336;36.728;-4.414;2022-10-04T00:01:05;32.40;;;4.97;;
47617;SDS011;33336;36.728;-4.414;2022-10-04T00:06:15;36.55;;;5.75;;
47617;SDS011;33336;36.728;-4.414;2022-10-04T00:11:22;36.50;;;6.97;;
47617;SDS011;33336;36.728;-4.414;2022-10-04T00:16:27;30.95;;;5.95;;
47617;SDS011;33336;36.728;-4.414;2022-10-04T00:27:26;32.30;;;6.10;;
47617;SDS011;33336;36.728;-4.414;2022-10-04T00:32:30;27.13;;;7.93;;
47617;SDS011;33336;36.728;-4.414;2022-10-04T00:42:59;41.17;;;11.45;;
47617;SDS011;33336;36.728;-4.414;2022-10-04T00:48:12;39.17;;;9.32;;
47617;SDS011;33336;36.728;-4.414;2022-10-04T00:53:35;29.35;;;9.32;;
47617;SDS011;33336;36.728;-4.414;2022-10-04T00:58:59;37.95;;;8.43;;
47617;SDS011;33336;36.728;-4.414;2022-10-04T01:04:20;37.00;;;8.82;;
47617;SDS011;33336;36.728;-4.414;2022-10-04T01:09:35;32.88;;;8.77;;
47617;SDS011;33336;36.728;-4.414;2022-10-04T01:14:46;35.17;;;10.77;;
47617;SDS011;33336;36.728;-4.414;2022-10-04T01:19:54;36.58;;;12.05;;
47617;SDS011;33336;36.728;-4.414;2022-10-04T01:25:00;32.80;;;10.55;;
47617;SDS011;33336;36.728;-4.414;2022-10-04T01:30:04;35.30;;;12.27;;
47617;SDS011;33336;36.728;-4.414;2022-10-04T01:35:09;28.38;;;10.10;;
47617;SDS011;33336;36.728;-4.414;2022-10-04T01:40:15;34.40;;;10.90;;
47617;SDS011;33336;36.728;-4.414;2022-10-04T01:45:20;25.70;;;9.02;;
47617;SDS011;33336;36.728;-4.414;2022-10-04T01:50:30;45.20;;;8.73;;
47617;SDS011;33336;36.728;-4.414;2022-10-04T01:55:37;30.00;;;7.82;;
47617;SDS011;33336;36.728;-4.414;2022-10-04T02:00:44;36.17;;;7.88;;
47617;SDS011;33336;36.728;-4.414;2022-10-04T02:05:52;25.10;;;6.57;;
47617;SDS011;33336;36.728;-4.414;2022-10-04T02:16:02;32.67;;;7.38;;
47617;SDS011;33336;36.728;-4.414;2022-10-04T02:21:09;28.92;;;7.18;;
47617;SDS011;33336;36.728;-4.414;2022-10-04T02:26:16;34.58;;;9.35;;
47617;SDS011;33336;36.728;-4.414;2022-10-04T02:31:19;36.83;;;11.68;;
47617;SDS011;33336;36.728;-4.414;2022-10-04T02:36:41;29.17;;;9.00;;
47617;SDS011;33336;36.728;-4.414;2022-10-04T02:41:46;28.92;;;11.43;;
47617;SDS011;33336;36.728;-4.414;2022-10-04T02:46:54;43.42;;;13.15;;
47617;SDS011;33336;36.728;-4.414;2022-10-04T02:52:06;37.00;;;14.18;;
47617;SDS011;33336;36.728;-4.414;2022-10-04T02:57:15;43.60;;;13.10;;
47617;SDS011;33336;36.728;-4.414;2022-10-04T03:02:22;42.55;;;15.35;;
47617;SDS011;33336;36.728;-4.414;2022-10-04T03:07:28;45.88;;;15.63;;
47617;SDS011;33336;36.728;-4.414;2022-10-04T03:12:34;46.92;;;17.08;;
47617;SDS011;33336;36.728;-4.414;2022-10-04T03:17:39;51.80;;;19.25;;
47617;SDS011;33336;36.728;-4.414;2022-10-04T03:22:44;46.08;;;19.75;;
47617;SDS011;33336;36.728;-4.414;2022-10-04T03:27:52;45.28;;;18.70;;
47617;SDS011;33336;36.728;-4.414;2022-10-04T03:32:55;45.42;;;19.08;;
47617;SDS011;33336;36.728;-4.414;2022-10-04T03:37:59;43.78;;;14.55;;
47617;SDS011;33336;36.728;-4.414;2022-10-04T03:48:13;34.50;;;15.13;;
47617;SDS011;33336;36.728;-4.414;2022-10-04T03:53:26;43.38;;;10.98;;
47617;SDS011;33336;36.728;-4.414;2022-10-04T03:58:34;36.53;;;11.00;;
47617;SDS011;33336;36.728;-4.414;2022-10-04T04:03:40;35.60;;;11.98;;
47617;SDS011;33336;36.728;-4.414;2022-10-04T04:08:52;43.65;;;11.02;;
47617;SDS011;33336;36.728;-4.414;2022-10-04T04:14:00;36.08;;;10.80;;
47617;SDS011;33336;36.728;-4.414;2022-10-04T04:19:09;36.17;;;11.45;;
47617;SDS011;33336;36.728;-4.414;2022-10-04T04:24:18;35.15;;;11.15;;
47617;SDS011;33336;36.728;-4.414;2022-10-04T04:29:29;38.40;;;11.25;;
47617;SDS011;33336;36.728;-4.414;2022-10-04T04:34:43;34.95;;;9.10;;
47617;SDS011;33336;36.728;-4.414;2022-10-04T04:39:53;35.80;;;8.75;;
47617;SDS011;33336;36.728;-4.414;2022-10-04T04:44:59;30.08;;;9.25;;
47617;SDS011;33336;36.728;-4.414;2022-10-04T04:50:06;26.45;;;7.88;;
47617;SDS011;33336;36.728;-4.414;2022-10-04T04:55:15;19.10;;;6.68;;
47617;SDS011;33336;36.728;-4.414;2022-10-04T05:00:26;31.48;;;6.90;;
47617;SDS011;33336;36.728;-4.414;2022-10-04T05:05:31;29.90;;;7.97;;
47617;SDS011;33336;36.728;-4.414;2022-10-04T05:10:36;33.65;;;6.78;;
47617;SDS011;33336;36.728;-4.414;2022-10-04T05:15:43;37.35;;;7.18;;
47617;SDS011;33336;36.728;-4.414;2022-10-04T05:20:47;34.80;;;8.90;;
47617;SDS011;33336;36.728;-4.414;2022-10-04T05:25:52;30.73;;;7.32;;
47617;SDS011;33336;36.728;-4.414;2022-10-04T05:42:10;21.75;;;5.00;;
47617;SDS011;33336;36.728;-4.414;2022-10-04T05:47:22;29.58;;;7.50;;
47617;SDS011;33336;36.728;-4.414;2022-10-04T05:52:29;32.95;;;6.25;;
47617;SDS011;33336;36.728;-4.414;2022-10-04T05:57:37;25.83;;;6.35;;
47617;SDS011;33336;36.728;-4.414;2022-10-04T06:08:30;37.17;;;6.32;;
47617;SDS011;33336;36.728;-4.414;2022-10-04T06:13:58;24.65;;;5.35;;
47617;SDS011;33336;36.728;-4.414;2022-10-04T06:24:54;30.83;;;4.78;;
47617;SDS011;33336;36.728;-4.414;2022-10-04T06:30:02;28.27;;;4.50;;
47617;SDS011;33336;36.728;-4.414;2022-10-04T06:35:16;23.00;;;4.68;;
47617;SDS011;33336;36.728;-4.414;2022-10-04T06:40:51;27.67;;;4.55;;
47617;SDS011;33336;36.728;-4.414;2022-10-04T06:46:16;29.80;;;4.45;;
47617;SDS011;33336;36.728;-4.414;2022-10-04T06:51:42;25.38;;;4.15;;
47617;SDS011;33336;36.728;-4.414;2022-10-04T06:57:15;27.83;;;6.68;;
47617;SDS011;33336;36.728;-4.414;2022-10-04T07:02:35;21.50;;;4.43;;
47617;SDS011;33336;36.728;-4.414;2022-10-04T07:07:45;18.90;;;3.78;;
47617;SDS011;33336;36.728;-4.414;2022-10-04T07:13:14;21.45;;;4.97;;
47617;SDS011;33336;36.728;-4.414;2022-10-04T07:18:26;26.50;;;3.63;;
47617;SDS011;33336;36.728;-4.414;2022-10-04T07:23:38;16.45;;;3.10;;
47617;SDS011;33336;36.728;-4.414;2022-10-04T07:28:48;22.25;;;3.72;;
47617;SDS011;33336;36.728;-4.414;2022-10-04T07:34:10;26.83;;;3.58;;
47617;SDS011;33336;36.728;-4.414;2022-10-04T07:39:20;15.65;;;4.45;;
47617;SDS011;33336;36.728;-4.414;2022-10-04T07:44:32;31.98;;;5.50;;
47617;SDS011;33336;36.728;-4.414;2022-10-04T07:49:37;32.10;;;6.10;;
47617;SDS011;33336;36.728;-4.414;2022-10-04T07:54:43;33.10;;;7.13;;
47617;SDS011;33336;36.728;-4.414;2022-10-04T07:59:55;30.00;;;6.95;;
47617;SDS011;33336;36.728;-4.414;2022-10-04T08:05:06;35.53;;;7.85;;
47617;SDS011;33336;36.728;-4.414;2022-10-04T08:10:19;29.13;;;8.10;;
47617;SDS011;33336;36.728;-4.414;2022-10-04T08:15:36;31.85;;;8.82;;
47617;SDS011;33336;36.728;-4.414;2022-10-04T08:20:42;34.22;;;7.72;;
47617;SDS011;33336;36.728;-4.414;2022-10-04T08:25:55;29.05;;;6.05;;
47617;SDS011;33336;36.728;-4.414;2022-10-04T08:31:09;32.40;;;6.38;;
47617;SDS011;33336;36.728;-4.414;2022-10-04T08:36:24;29.45;;;6.00;;
47617;SDS011;33336;36.728;-4.414;2022-10-04T08:41:53;20.35;;;5.35;;
47617;SDS011;33336;36.728;-4.414;2022-10-04T08:47:17;28.40;;;7.85;;
47617;SDS011;33336;36.728;-4.414;2022-10-04T08:52:40;35.30;;;6.85;;
47617;SDS011;33336;36.728;-4.414;2022-10-04T08:58:13;27.40;;;7.32;;
47617;SDS011;33336;36.728;-4.414;2022-10-04T09:15:06;29.25;;;7.30;;
47617;SDS011;33336;36.728;-4.414;2022-10-04T09:20:21;50.58;;;9.98;;
47617;SDS011;33336;36.728;-4.414;2022-10-04T09:25:46;29.00;;;6.70;;
47617;SDS011;33336;36.728;-4.414;2022-10-04T09:36:06;33.08;;;7.43;;
47617;SDS011;33336;36.728;-4.414;2022-10-04T09:41:28;47.85;;;8.73;;
47617;SDS011;33336;36.728;-4.414;2022-10-04T09:46:52;24.92;;;5.10;;
47617;SDS011;33336;36.728;-4.414;2022-10-04T09:52:09;18.90;;;3.97;;
47617;SDS011;33336;36.728;-4.414;2022-10-04T09:57:26;35.90;;;5.18;;
47617;SDS011;33336;36.728;-4.414;2022-10-04T10:02:49;26.98;;;5.43;;
47617;SDS011;33336;36.728;-4.414;2022-10-04T10:08:14;20.85;;;4.85;;
47617;SDS011;33336;36.728;-4.414;2022-10-04T10:13:28;17.10;;;5.35;;
47617;SDS011;33336;36.728;-4.414;2022-10-04T10:18:51;22.92;;;4.47;;
47617;SDS011;33336;36.728;-4.414;2022-10-04T10:24:25;20.95;;;3.15;;
47617;SDS011;33336;36.728;-4.414;2022-10-04T10:46:37;21.42;;;4.78;;
47617;SDS011;33336;36.728;-4.414;2022-10-04T10:52:02;23.02;;;5.90;;
47617;SDS011;33336;36.728;-4.414;2022-10-04T10:57:56;23.55;;;5.65;;
47617;SDS011;33336;36.728;-4.414;2022-10-04T11:03:47;30.80;;;4.63;;
47617;SDS011;33336;36.728;-4.414;2022-10-04T11:09:30;26.77;;;4.38;;
47617;SDS011;33336;36.728;-4.414;2022-10-04T11:14:50;21.65;;;4.43;;
47617;SDS011;33336;36.728;-4.414;2022-10-04T11:20:23;37.20;;;6.72;;
47617;SDS011;33336;36.728;-4.414;2022-10-04T11:37:04;25.13;;;4.97;;
47617;SDS011;33336;36.728;-4.414;2022-10-04T11:42:18;31.13;;;5.03;;
47617;SDS011;33336;36.728;-4.414;2022-10-04T11:47:34;20.52;;;4.05;;
47617;SDS011;33336;36.728;-4.414;2022-10-04T11:52:51;20.58;;;5.07;;
47617;SDS011;33336;36.728;-4.414;2022-10-04T11:58:08;25.33;;;5.68;;
47617;SDS011;33336;36.728;-4.414;2022-10-04T12:03:23;20.38;;;5.15;;
47617;SDS011;33336;36.728;-4.414;2022-10-04T12:08:45;34.65;;;6.03;;
47617;SDS011;33336;36.728;-4.414;2022-10-04T12:14:01;20.88;;;4.15;;
47617;SDS011;33336;36.728;-4.414;2022-10-04T12:31:02;20.85;;;4.43;;
47617;SDS011;33336;36.728;-4.414;2022-10-04T12:41:52;22.00;;;5.00;;
47617;SDS011;33336;36.728;-4.414;2022-10-04T12:47:35;19.88;;;4.25;;
47617;SDS011;33336;36.728;-4.414;2022-10-04T12:52:49;23.23;;;5.40;;
47617;SDS011;33336;36.728;-4.414;2022-10-04T12:57:56;21.55;;;5.85;;
47617;SDS011;33336;36.728;-4.414;2022-10-04T13:03:09;23.57;;;4.90;;
47617;SDS011;33336;36.728;-4.414;2022-10-04T13:08:29;24.13;;;5.47;;
47617;SDS011;33336;36.728;-4.414;2022-10-04T13:13:48;15.73;;;5.05;;
47617;SDS011;33336;36.728;-4.414;2022-10-04T13:19:13;15.60;;;5.75;;
47617;SDS011;33336;36.728;-4.414;2022-10-04T13:24:24;19.10;;;5.97;;
47617;SDS011;33336;36.728;-4.414;2022-10-04T13:29:56;19.05;;;6.95;;
47617;SDS011;33336;36.728;-4.414;2022-10-04T13:35:09;21.38;;;6.18;;
47617;SDS011;33336;36.728;-4.414;2022-10-04T13:45:47;15.68;;;5.55;;
47617;SDS011;33336;36.728;-4.414;2022-10-04T13:51:05;28.90;;;7.85;;
47617;SDS011;33336;36.728;-4.414;2022-10-04T13:56:36;20.17;;;7.03;;
47617;SDS011;33336;36.728;-4.414;2022-10-04T14:02:11;17.38;;;5.85;;
47617;SDS011;33336;36.728;-4.414;2022-10-04T14:07:46;15.07;;;4.68;;
47617;SDS011;33336;36.728;-4.414;2022-10-04T14:18:41;18.60;;;4.32;;
47617;SDS011;33336;36.728;-4.414;2022-10-04T14:35:23;15.30;;;5.03;;
47617;SDS011;33336;36.728;-4.414;2022-10-04T14:40:42;11.68;;;4.43;;
47617;SDS011;33336;36.728;-4.414;2022-10-04T14:45:57;13.95;;;4.70;;
47617;SDS011;33336;36.728;-4.414;2022-10-04T14:51:14;14.90;;;4.60;;
47617;SDS011;33336;36.728;-4.414;2022-10-04T14:56:37;11.35;;;3.03;;
47617;SDS011;33336;36.728;-4.414;2022-10-04T15:07:15;6.57;;;2.17;;
47617;SDS011;33336;36.728;-4.414;2022-10-04T15:17:55;2.13;;;0.55;;
47617;SDS011;33336;36.728;-4.414;2022-10-04T15:23:07;1.73;;;0.50;;
47617;SDS011;33336;36.728;-4.414;2022-10-04T15:33:57;4.30;;;0.85;;
47617;SDS011;33336;36.728;-4.414;2022-10-04T15:39:05;7.68;;;1.35;;
47617;SDS011;33336;36.728;-4.414;2022-10-04T15:49:58;11.02;;;1.83;;
47617;SDS011;33336;36.728;-4.414;2022-10-04T15:55:17;13.55;;;2.78;;
47617;SDS011;33336;36.728;-4.414;2022-10-04T16:00:22;11.05;;;2.13;;
47617;SDS011;33336;36.728;-4.414;2022-10-04T16:05:32;11.65;;;2.83;;
47617;SDS011;33336;36.728;-4.414;2022-10-04T16:10:54;14.13;;;2.20;;
47617;SDS011;33336;36.728;-4.414;2022-10-04T16:21:51;11.68;;;2.20;;
47617;SDS011;33336;36.728;-4.414;2022-10-04T16:27:04;10.98;;;2.35;;
47617;SDS011;33336;36.728;-4.414;2022-10-04T16:32:21;12.23;;;2.60;;
47617;SDS011;33336;36.728;-4.414;2022-10-04T16:37:32;10.27;;;2.17;;
47617;SDS011;33336;36.728;-4.414;2022-10-04T16:42:46;15.60;;;2.75;;
47617;SDS011;33336;36.728;-4.414;2022-10-04T16:47:53;14.20;;;3.17;;
47617;SDS011;33336;36.728;-4.414;2022-10-04T16:53:14;11.43;;;2.03;;
47617;SDS011;33336;36.728;-4.414;2022-10-04T16:58:34;11.88;;;2.90;;
47617;SDS011;33336;36.728;-4.414;2022-10-04T17:03:44;10.07;;;1.75;;
47617;SDS011;33336;36.728;-4.414;2022-10-04T17:09:03;9.10;;;2.25;;
47617;SDS011;33336;36.728;-4.414;2022-10-04T17:14:20;19.77;;;2.53;;
47617;SDS011;33336;36.728;-4.414;2022-10-04T17:19:44;13.55;;;2.63;;
47617;SDS011;33336;36.728;-4.414;2022-10-04T17:24:57;6.55;;;1.10;;
47617;SDS011;33336;36.728;-4.414;2022-10-04T17:30:11;15.38;;;1.83;;
47617;SDS011;33336;36.728;-4.414;2022-10-04T17:35:30;19.05;;;3.13;;
47617;SDS011;33336;36.728;-4.414;2022-10-04T17:40:58;12.70;;;2.55;;
47617;SDS011;33336;36.728;-4.414;2022-10-04T17:46:08;12.02;;;3.20;;
47617;SDS011;33336;36.728;-4.414;2022-10-04T17:51:30;14.18;;;2.50;;
47617;SDS011;33336;36.728;-4.414;2022-10-04T17:57:11;13.27;;;2.42;;
47617;SDS011;33336;36.728;-4.414;2022-10-04T18:02:26;18.55;;;2.70;;
47617;SDS011;33336;36.728;-4.414;2022-10-04T18:07:42;11.65;;;2.85;;
47617;SDS011;33336;36.728;-4.414;2022-10-04T18:12:50;11.25;;;2.13;;
47617;SDS011;33336;36.728;-4.414;2022-10-04T18:18:15;11.57;;;2.65;;
47617;SDS011;33336;36.728;-4.414;2022-10-04T18:23:23;11.80;;;1.52;;
47617;SDS011;33336;36.728;-4.414;2022-10-04T18:28:29;9.80;;;1.77;;
47617;SDS011;33336;36.728;-4.414;2022-10-04T18:33:44;6.90;;;1.60;;
47617;SDS011;33336;36.728;-4.414;2022-10-04T18:39:15;9.73;;;2.58;;
47617;SDS011;33336;36.728;-4.414;2022-10-04T18:58:31;9.50;;;3.40;;
47617;SDS011;33336;36.728;-4.414;2022-10-04T19:04:05;10.25;;;3.33;;
47617;SDS011;33336;36.728;-4.414;2022-10-04T19:09:16;10.82;;;3.78;;
47617;SDS011;33336;36.728;-4.414;2022-10-04T19:14:31;12.80;;;3.25;;
47617;SDS011;33336;36.728;-4.414;2022-10-04T19:19:45;11.70;;;4.10;;
47617;SDS011;33336;36.728;-4.414;2022-10-04T19:25:18;7.95;;;5.15;;
47617;SDS011;33336;36.728;-4.414;2022-10-04T19:30:43;16.85;;;5.60;;
47617;SDS011;33336;36.728;-4.414;2022-10-04T19:35:58;14.77;;;7.80;;
47617;SDS011;33336;36.728;-4.414;2022-10-04T19:41:12;19.50;;;7.28;;
47617;SDS011;33336;36.728;-4.414;2022-10-04T19:46:30;14.65;;;7.55;;
47617;SDS011;33336;36.728;-4.414;2022-10-04T19:51:40;14.68;;;7.43;;
47617;SDS011;33336;36.728;-4.414;2022-10-04T19:56:51;16.50;;;7.05;;
47617;SDS011;33336;36.728;-4.414;2022-10-04T20:01:58;13.13;;;7.28;;
47617;SDS011;33336;36.728;-4.414;2022-10-04T20:07:03;16.33;;;8.43;;
47617;SDS011;33336;36.728;-4.414;2022-10-04T20:12:27;14.38;;;6.97;;
47617;SDS011;33336;36.728;-4.414;2022-10-04T20:17:37;20.27;;;8.82;;
47617;SDS011;33336;36.728;-4.414;2022-10-04T20:22:53;23.55;;;9.38;;
47617;SDS011;33336;36.728;-4.414;2022-10-04T20:28:01;20.30;;;9.75;;
47617;SDS011;33336;36.728;-4.414;2022-10-04T20:33:05;21.27;;;9.02;;
47617;SDS011;33336;36.728;-4.414;2022-10-04T20:38:12;23.83;;;8.48;;
47617;SDS011;33336;36.728;-4.414;2022-10-04T20:43:23;23.45;;;8.60;;
47617;SDS011;33336;36.728;-4.414;2022-10-04T20:48:28;24.80;;;9.45;;
47617;SDS011;33336;36.728;-4.414;2022-10-04T20:53:32;20.38;;;9.75;;
47617;SDS011;33336;36.728;-4.414;2022-10-04T20:58:36;27.52;;;9.23;;
47617;SDS011;33336;36.728;-4.414;2022-10-04T21:03:42;32.25;;;9.90;;
47617;SDS011;33336;36.728;-4.414;2022-10-04T21:08:45;27.17;;;8.73;;
47617;SDS011;33336;36.728;-4.414;2022-10-04T21:13:52;20.95;;;8.15;;
47617;SDS011;33336;36.728;-4.414;2022-10-04T21:24:53;27.42;;;10.60;;
47617;SDS011;33336;36.728;-4.414;2022-10-04T21:29:59;28.77;;;10.02;;
47617;SDS011;33336;36.728;-4.414;2022-10-04T21:35:03;26.23;;;10.13;;
47617;SDS011;33336;36.728;-4.414;2022-10-04T21:40:11;23.38;;;7.95;;
47617;SDS011;33336;36.728;-4.414;2022-10-04T21:45:14;23.63;;;10.05;;
47617;SDS011;33336;36.728;-4.414;2022-10-04T21:50:18;18.00;;;8.05;;
47617;SDS011;33336;36.728;-4.414;2022-10-04T21:55:22;22.15;;;6.22;;
47617;SDS011;33336;36.728;-4.414;2022-10-04T22:00:25;22.58;;;5.53;;
47617;SDS011;33336;36.728;-4.414;2022-10-04T22:05:28;22.92;;;6.28;;
47617;SDS011;33336;36.728;-4.414;2022-10-04T22:10:33;22.55;;;5.82;;
47617;SDS011;33336;36.728;-4.414;2022-10-04T22:15:36;20.65;;;6.45;;
47617;SDS011;33336;36.728;-4.414;2022-10-04T22:20:40;24.52;;;7.22;;
47617;SDS011;33336;36.728;-4.414;2022-10-04T22:25:44;25.48;;;6.07;;
47617;SDS011;33336;36.728;-4.414;2022-10-04T22:30:47;15.30;;;6.43;;
47617;SDS011;33336;36.728;-4.414;2022-10-04T22:35:52;21.90;;;7.55;;
47617;SDS011;33336;36.728;-4.414;2022-10-04T22:40:59;19.52;;;6.38;;
47617;SDS011;33336;36.728;-4.414;2022-10-04T22:46:02;19.83;;;6.25;;
47617;SDS011;33336;36.728;-4.414;2022-10-04T22:51:07;25.10;;;8.18;;
47617;SDS011;33336;36.728;-4.414;2022-10-04T22:56:13;31.52;;;7.07;;
47617;SDS011;33336;36.728;-4.414;2022-10-04T23:01:17;20.88;;;7.18;;
47617;SDS011;33336;36.728;-4.414;2022-10-04T23:06:20;28.13;;;7.15;;
47617;SDS011;33336;36.728;-4.414;2022-10-04T23:11:24;22.98;;;6.13;;
47617;SDS011;33336;36.728;-4.414;2022-10-04T23:16:27;18.40;;;6.28;;
47617;SDS011;33336;36.728;-4.414;2022-10-04T23:21:32;24.77;;;6.15;;
47617;SDS011;33336;36.728;-4.414;2022-10-04T23:44:31;27.95;;;6.25;;
47617;SDS011;33336;36.728;-4.414;2022-10-04T23:49:36;16.08;;;5.32;;
47617;SDS011;33336;36.728;-4.414;2022-10-04T23:54:38;28.98;;;6.97;;
47617;SDS011;33336;36.728;-4.414;2022-10-04T23:59:43;26.10;;;5.82;;
